LiveATC.Net - Listen to live air traffic control over the Internet!


ICAO: KAMW  IATA: AMW   Airport: Ames Municipal Airport
City: Ames   State/Province: Iowa
Country: United States   Continent: North America
KAMW METAR Weather: KAMW 191053Z AUTO 34007KT 10SM CLR 03/02 A3001 RMK AO2 SLP164 T00330017
KAMW Flight Activity (FlightAware)
KAMW Airport Info   (iFlightPlanner)
KAMW VFR Sectional Chart   (iFlightPlanner) 
KAMW IFR Low Chart   (iFlightPlanner) 

KAMW CTAF
Feed Status: UP   Listeners: 0
Listen in your browser - HTML5 player (in browser, HTML5)
Click here to listen with your own player (launches your MP3 player)
KAMW CTAF Audio Archives
FacilityFrequency
Ames CTAF122.700

NOTICE

Unauthorized use prohibited. See LiveATC.net Terms of Service


Find LiveATC Audio Streams


Airport/ARTCC Code

Frequency Search
(e.g., 124.400, 128.75)
Site-wide search
 


Browse LiveATC Feeds
Top 50 LiveATC Feeds
LiveATC Feed Map
Bad Weather Areas

LiveATC FAQ
Offer LiveATC feed
Contact LiveATC.net
Press Inquiries

LiveATC on iPhone
LiveATC on Android

Windows Phone
Windows 8/10

LiveATC Mobile
(Mobile browser)

ATC Audio Archives
Interesting Recordings

LiveATC Forums


Home Page
About LiveATC.net
Make a Donation
Terms of Use
Privacy Policy

Canadian Air Freqs

AIRMETs/SIGMETs

FAA Airport Status
Nat'l Airspace Status
Arrival Demand Charts


Server Software By:
Icecast.org
Liquidsoap